Albuquerque (West), New Mexico
Current Conditions -  °F | °C
As of 1:48 PM on Monday 24 Nov 2014 (Local Time) from KAEG Reporting Station
Scattered Clouds Scattered Clouds  
Wind Chill: 33°   Ceiling: Unl
Heat Index: 43°   Visibility: 10mi
Dew Point:   Wind: 24mph
Humidity: 23%   Direction: 300°WNW
Pressure: 30.09"   Gusts: 32mph
Location:  35.15°N, 106.8°W
Report Text: KAEG 242048Z 30021G28KT 10SM SCT090 06/M14 A3009
Loading
Personal Weather Stations






























Interactive Weather Map New forecast layout! Learn more

10-Day Weather Forecast

Advertisements
Track Severe Weather on mobile